sensor_id;sensor_type;location;lat;lon;timestamp;temperature;humidity
52187;DHT22;38161;53.020;6.598;2022-08-21T00:00:24;16.00;99.90
52187;DHT22;38161;53.020;6.598;2022-08-21T00:02:57;16.00;99.90
52187;DHT22;38161;53.020;6.598;2022-08-21T00:05:23;16.00;99.90
52187;DHT22;38161;53.020;6.598;2022-08-21T00:07:50;16.00;99.90
52187;DHT22;38161;53.020;6.598;2022-08-21T00:10:17;15.90;99.90
52187;DHT22;38161;53.020;6.598;2022-08-21T00:12:43;15.90;99.90
52187;DHT22;38161;53.020;6.598;2022-08-21T00:15:10;15.90;99.90
52187;DHT22;38161;53.020;6.598;2022-08-21T00:17:36;15.80;99.90
52187;DHT22;38161;53.020;6.598;2022-08-21T00:20:05;15.80;99.90
52187;DHT22;38161;53.020;6.598;2022-08-21T00:22:32;15.80;99.90
52187;DHT22;38161;53.020;6.598;2022-08-21T00:24:58;15.80;99.90
52187;DHT22;38161;53.020;6.598;2022-08-21T00:27:23;15.70;99.90
52187;DHT22;38161;53.020;6.598;2022-08-21T00:29:49;15.70;99.90
52187;DHT22;38161;53.020;6.598;2022-08-21T00:32:20;15.70;99.90
52187;DHT22;38161;53.020;6.598;2022-08-21T00:34:46;15.30;99.90
52187;DHT22;38161;53.020;6.598;2022-08-21T00:37:12;15.60;99.90
52187;DHT22;38161;53.020;6.598;2022-08-21T00:39:38;15.60;99.90
52187;DHT22;38161;53.020;6.598;2022-08-21T00:42:04;15.50;99.90
52187;DHT22;38161;53.020;6.598;2022-08-21T00:44:30;15.50;99.90
52187;DHT22;38161;53.020;6.598;2022-08-21T00:46:56;15.50;99.90
52187;DHT22;38161;53.020;6.598;2022-08-21T00:49:22;15.40;99.90
52187;DHT22;38161;53.020;6.598;2022-08-21T00:51:55;15.40;99.90
52187;DHT22;38161;53.020;6.598;2022-08-21T00:54:26;15.40;99.90
52187;DHT22;38161;53.020;6.598;2022-08-21T00:57:07;15.30;99.90
52187;DHT22;38161;53.020;6.598;2022-08-21T00:59:37;15.30;99.90
52187;DHT22;38161;53.020;6.598;2022-08-21T01:02:04;15.30;99.90
52187;DHT22;38161;53.020;6.598;2022-08-21T01:04:31;15.30;99.90
52187;DHT22;38161;53.020;6.598;2022-08-21T01:06:56;15.20;99.90
52187;DHT22;38161;53.020;6.598;2022-08-21T01:09:22;15.20;99.90
52187;DHT22;38161;53.020;6.598;2022-08-21T01:11:48;15.20;99.90
52187;DHT22;38161;53.020;6.598;2022-08-21T01:14:14;15.20;99.90
52187;DHT22;38161;53.020;6.598;2022-08-21T01:16:44;15.10;99.90
52187;DHT22;38161;53.020;6.598;2022-08-21T01:19:10;15.10;99.90
52187;DHT22;38161;53.020;6.598;2022-08-21T01:21:37;15.10;99.90
52187;DHT22;38161;53.020;6.598;2022-08-21T01:24:03;15.00;99.90
52187;DHT22;38161;53.020;6.598;2022-08-21T01:26:31;15.00;99.90
52187;DHT22;38161;53.020;6.598;2022-08-21T01:31:32;15.00;99.90
52187;DHT22;38161;53.020;6.598;2022-08-21T01:33:59;14.90;99.90
52187;DHT22;38161;53.020;6.598;2022-08-21T01:36:25;14.90;99.90
52187;DHT22;38161;53.020;6.598;2022-08-21T01:38:51;14.90;99.90
52187;DHT22;38161;53.020;6.598;2022-08-21T01:41:16;14.80;99.90
52187;DHT22;38161;53.020;6.598;2022-08-21T01:43:43;14.80;99.90
52187;DHT22;38161;53.020;6.598;2022-08-21T01:46:10;14.80;99.90
52187;DHT22;38161;53.020;6.598;2022-08-21T01:48:37;14.80;99.90
52187;DHT22;38161;53.020;6.598;2022-08-21T01:51:04;14.80;99.90
52187;DHT22;38161;53.020;6.598;2022-08-21T01:53:30;14.70;99.90
52187;DHT22;38161;53.020;6.598;2022-08-21T01:55:56;14.70;99.90
52187;DHT22;38161;53.020;6.598;2022-08-21T01:58:22;14.70;99.90
52187;DHT22;38161;53.020;6.598;2022-08-21T02:00:48;14.60;99.90
52187;DHT22;38161;53.020;6.598;2022-08-21T02:03:14;14.60;99.90
52187;DHT22;38161;53.020;6.598;2022-08-21T02:05:40;14.60;99.90
52187;DHT22;38161;53.020;6.598;2022-08-21T02:08:06;14.60;99.90
52187;DHT22;38161;53.020;6.598;2022-08-21T02:10:33;14.50;99.90
52187;DHT22;38161;53.020;6.598;2022-08-21T02:12:59;14.50;99.90
52187;DHT22;38161;53.020;6.598;2022-08-21T02:15:27;14.50;99.90
52187;DHT22;38161;53.020;6.598;2022-08-21T02:17:55;14.50;99.90
52187;DHT22;38161;53.020;6.598;2022-08-21T02:20:30;14.40;99.90
52187;DHT22;38161;53.020;6.598;2022-08-21T02:22:56;14.40;99.90
52187;DHT22;38161;53.020;6.598;2022-08-21T02:25:24;14.40;99.90
52187;DHT22;38161;53.020;6.598;2022-08-21T02:27:51;14.40;99.90
52187;DHT22;38161;53.020;6.598;2022-08-21T02:30:23;14.30;99.90
52187;DHT22;38161;53.020;6.598;2022-08-21T02:32:49;14.30;99.90
52187;DHT22;38161;53.020;6.598;2022-08-21T02:35:15;14.30;99.90
52187;DHT22;38161;53.020;6.598;2022-08-21T02:37:47;14.30;99.90
52187;DHT22;38161;53.020;6.598;2022-08-21T02:40:13;14.30;99.90
52187;DHT22;38161;53.020;6.598;2022-08-21T02:42:39;14.30;99.90
52187;DHT22;38161;53.020;6.598;2022-08-21T02:45:06;14.30;99.90
52187;DHT22;38161;53.020;6.598;2022-08-21T02:47:32;14.30;99.90
52187;DHT22;38161;53.020;6.598;2022-08-21T02:49:58;14.30;99.90
52187;DHT22;38161;53.020;6.598;2022-08-21T02:52:24;14.20;99.90
52187;DHT22;38161;53.020;6.598;2022-08-21T02:54:50;14.20;99.90
52187;DHT22;38161;53.020;6.598;2022-08-21T02:57:15;14.20;99.90
52187;DHT22;38161;53.020;6.598;2022-08-21T02:59:41;14.20;99.90
52187;DHT22;38161;53.020;6.598;2022-08-21T03:02:07;14.20;99.90
52187;DHT22;38161;53.020;6.598;2022-08-21T03:04:33;14.20;99.90
52187;DHT22;38161;53.020;6.598;2022-08-21T03:06:59;14.20;99.90
52187;DHT22;38161;53.020;6.598;2022-08-21T03:09:25;14.20;99.90
52187;DHT22;38161;53.020;6.598;2022-08-21T03:11:51;14.20;99.90
52187;DHT22;38161;53.020;6.598;2022-08-21T03:14:18;14.20;99.90
52187;DHT22;38161;53.020;6.598;2022-08-21T03:16:44;14.30;99.90
52187;DHT22;38161;53.020;6.598;2022-08-21T03:19:11;14.30;99.90
52187;DHT22;38161;53.020;6.598;2022-08-21T03:21:37;14.30;99.90
52187;DHT22;38161;53.020;6.598;2022-08-21T03:24:03;14.30;99.90
52187;DHT22;38161;53.020;6.598;2022-08-21T03:26:30;14.30;99.90
52187;DHT22;38161;53.020;6.598;2022-08-21T03:28:56;14.30;99.90
52187;DHT22;38161;53.020;6.598;2022-08-21T03:31:23;14.30;99.90
52187;DHT22;38161;53.020;6.598;2022-08-21T03:33:49;14.30;99.90
52187;DHT22;38161;53.020;6.598;2022-08-21T03:36:16;14.30;99.90
52187;DHT22;38161;53.020;6.598;2022-08-21T03:38:42;14.30;99.90
52187;DHT22;38161;53.020;6.598;2022-08-21T03:41:09;14.40;99.90
52187;DHT22;38161;53.020;6.598;2022-08-21T03:43:35;14.40;99.90
52187;DHT22;38161;53.020;6.598;2022-08-21T03:46:02;14.40;99.90
52187;DHT22;38161;53.020;6.598;2022-08-21T03:48:29;14.40;99.90
52187;DHT22;38161;53.020;6.598;2022-08-21T03:50:55;14.40;99.90
52187;DHT22;38161;53.020;6.598;2022-08-21T03:53:20;14.50;99.90
52187;DHT22;38161;53.020;6.598;2022-08-21T03:55:48;14.50;99.90
52187;DHT22;38161;53.020;6.598;2022-08-21T03:58:15;14.50;99.90
52187;DHT22;38161;53.020;6.598;2022-08-21T04:00:41;14.50;99.90
52187;DHT22;38161;53.020;6.598;2022-08-21T04:03:07;14.50;99.90
52187;DHT22;38161;53.020;6.598;2022-08-21T04:05:33;14.40;99.90
52187;DHT22;38161;53.020;6.598;2022-08-21T04:08:02;14.40;99.90
52187;DHT22;38161;53.020;6.598;2022-08-21T04:10:30;14.30;99.90
52187;DHT22;38161;53.020;6.598;2022-08-21T04:12:56;14.30;99.90
52187;DHT22;38161;53.020;6.598;2022-08-21T04:15:24;14.30;99.90
52187;DHT22;38161;53.020;6.598;2022-08-21T04:17:50;14.30;99.90
52187;DHT22;38161;53.020;6.598;2022-08-21T04:20:18;14.20;99.90
52187;DHT22;38161;53.020;6.598;2022-08-21T04:22:44;14.20;99.90
52187;DHT22;38161;53.020;6.598;2022-08-21T04:25:11;14.20;99.90
52187;DHT22;38161;53.020;6.598;2022-08-21T04:27:37;14.20;99.90
52187;DHT22;38161;53.020;6.598;2022-08-21T04:30:05;14.20;99.90
52187;DHT22;38161;53.020;6.598;2022-08-21T04:32:30;14.20;99.90
52187;DHT22;38161;53.020;6.598;2022-08-21T04:35:01;14.20;99.90
52187;DHT22;38161;53.020;6.598;2022-08-21T04:37:27;14.20;99.90
52187;DHT22;38161;53.020;6.598;2022-08-21T04:39:53;14.20;99.90
52187;DHT22;38161;53.020;6.598;2022-08-21T04:42:21;14.20;99.90
52187;DHT22;38161;53.020;6.598;2022-08-21T04:44:47;14.30;99.90
52187;DHT22;38161;53.020;6.598;2022-08-21T04:47:14;14.30;99.90
52187;DHT22;38161;53.020;6.598;2022-08-21T04:49:40;14.20;99.90
52187;DHT22;38161;53.020;6.598;2022-08-21T04:52:06;14.20;99.90
52187;DHT22;38161;53.020;6.598;2022-08-21T04:54:32;14.30;99.90
52187;DHT22;38161;53.020;6.598;2022-08-21T04:57:02;14.30;99.90
52187;DHT22;38161;53.020;6.598;2022-08-21T04:59:38;14.30;99.90
52187;DHT22;38161;53.020;6.598;2022-08-21T05:02:06;14.30;99.90
52187;DHT22;38161;53.020;6.598;2022-08-21T05:04:33;14.30;99.90
52187;DHT22;38161;53.020;6.598;2022-08-21T05:07:02;14.30;99.90
52187;DHT22;38161;53.020;6.598;2022-08-21T05:09:29;14.40;99.90
52187;DHT22;38161;53.020;6.598;2022-08-21T05:11:55;14.30;99.90
52187;DHT22;38161;53.020;6.598;2022-08-21T05:14:21;14.40;99.90
52187;DHT22;38161;53.020;6.598;2022-08-21T05:16:47;14.40;99.90
52187;DHT22;38161;53.020;6.598;2022-08-21T05:19:14;14.40;99.90
52187;DHT22;38161;53.020;6.598;2022-08-21T05:21:42;14.40;99.90
52187;DHT22;38161;53.020;6.598;2022-08-21T05:24:08;14.40;99.90
52187;DHT22;38161;53.020;6.598;2022-08-21T05:26:35;14.50;99.90
52187;DHT22;38161;53.020;6.598;2022-08-21T05:29:02;14.50;99.90
52187;DHT22;38161;53.020;6.598;2022-08-21T05:31:28;14.60;99.90
52187;DHT22;38161;53.020;6.598;2022-08-21T05:33:54;14.60;99.90
52187;DHT22;38161;53.020;6.598;2022-08-21T05:36:19;14.60;99.90
52187;DHT22;38161;53.020;6.598;2022-08-21T05:38:46;14.60;99.90
52187;DHT22;38161;53.020;6.598;2022-08-21T05:41:12;14.60;99.90
52187;DHT22;38161;53.020;6.598;2022-08-21T05:43:37;14.70;99.90
52187;DHT22;38161;53.020;6.598;2022-08-21T05:46:04;14.70;99.90
52187;DHT22;38161;53.020;6.598;2022-08-21T05:48:31;14.80;99.90
52187;DHT22;38161;53.020;6.598;2022-08-21T05:50:57;14.80;99.90
52187;DHT22;38161;53.020;6.598;2022-08-21T05:53:24;14.90;99.90
52187;DHT22;38161;53.020;6.598;2022-08-21T05:55:51;15.00;99.90
52187;DHT22;38161;53.020;6.598;2022-08-21T05:58:19;15.00;99.90
52187;DHT22;38161;53.020;6.598;2022-08-21T06:00:46;15.10;99.90
52187;DHT22;38161;53.020;6.598;2022-08-21T06:03:24;15.20;99.90
52187;DHT22;38161;53.020;6.598;2022-08-21T06:05:51;15.30;99.90
52187;DHT22;38161;53.020;6.598;2022-08-21T06:08:18;15.30;99.90
52187;DHT22;38161;53.020;6.598;2022-08-21T06:10:45;15.40;99.90
52187;DHT22;38161;53.020;6.598;2022-08-21T06:13:13;15.50;99.90
52187;DHT22;38161;53.020;6.598;2022-08-21T06:15:39;15.60;99.90
52187;DHT22;38161;53.020;6.598;2022-08-21T06:18:05;15.70;99.90
52187;DHT22;38161;53.020;6.598;2022-08-21T06:20:31;15.80;99.90
52187;DHT22;38161;53.020;6.598;2022-08-21T06:22:57;15.90;99.90
52187;DHT22;38161;53.020;6.598;2022-08-21T06:25:23;16.00;99.90
52187;DHT22;38161;53.020;6.598;2022-08-21T06:27:50;16.00;99.90
52187;DHT22;38161;53.020;6.598;2022-08-21T06:30:16;16.10;99.90
52187;DHT22;38161;53.020;6.598;2022-08-21T06:32:41;16.30;99.90
52187;DHT22;38161;53.020;6.598;2022-08-21T06:35:08;16.30;99.90
52187;DHT22;38161;53.020;6.598;2022-08-21T06:37:34;16.40;99.90
52187;DHT22;38161;53.020;6.598;2022-08-21T06:39:59;16.50;99.90
52187;DHT22;38161;53.020;6.598;2022-08-21T06:42:25;16.60;99.90
52187;DHT22;38161;53.020;6.598;2022-08-21T06:44:53;16.70;99.90
52187;DHT22;38161;53.020;6.598;2022-08-21T06:47:19;16.80;99.90
52187;DHT22;38161;53.020;6.598;2022-08-21T06:49:44;16.90;99.90
52187;DHT22;38161;53.020;6.598;2022-08-21T06:52:11;17.00;99.90
52187;DHT22;38161;53.020;6.598;2022-08-21T06:54:38;17.00;99.90
52187;DHT22;38161;53.020;6.598;2022-08-21T06:57:05;17.10;99.90
52187;DHT22;38161;53.020;6.598;2022-08-21T06:59:31;17.20;99.90
52187;DHT22;38161;53.020;6.598;2022-08-21T07:01:58;17.30;99.90
52187;DHT22;38161;53.020;6.598;2022-08-21T07:04:24;17.40;99.90
52187;DHT22;38161;53.020;6.598;2022-08-21T07:06:50;17.50;99.90
52187;DHT22;38161;53.020;6.598;2022-08-21T07:09:15;17.60;99.90
52187;DHT22;38161;53.020;6.598;2022-08-21T07:11:41;17.70;99.90
52187;DHT22;38161;53.020;6.598;2022-08-21T07:14:07;17.80;99.90
52187;DHT22;38161;53.020;6.598;2022-08-21T07:16:33;17.90;99.90
52187;DHT22;38161;53.020;6.598;2022-08-21T07:18:59;17.90;99.90
52187;DHT22;38161;53.020;6.598;2022-08-21T07:21:25;18.10;99.90
52187;DHT22;38161;53.020;6.598;2022-08-21T07:23:51;18.10;99.90
52187;DHT22;38161;53.020;6.598;2022-08-21T07:26:19;18.20;99.90
52187;DHT22;38161;53.020;6.598;2022-08-21T07:28:47;18.30;99.90
52187;DHT22;38161;53.020;6.598;2022-08-21T07:31:17;18.30;99.90
52187;DHT22;38161;53.020;6.598;2022-08-21T07:33:43;18.40;99.90
52187;DHT22;38161;53.020;6.598;2022-08-21T07:36:09;18.50;99.90
52187;DHT22;38161;53.020;6.598;2022-08-21T07:38:35;18.60;99.90
52187;DHT22;38161;53.020;6.598;2022-08-21T07:41:10;18.70;99.90
52187;DHT22;38161;53.020;6.598;2022-08-21T07:43:38;18.80;99.90
52187;DHT22;38161;53.020;6.598;2022-08-21T07:46:04;18.90;99.90
52187;DHT22;38161;53.020;6.598;2022-08-21T07:48:29;19.00;99.90
52187;DHT22;38161;53.020;6.598;2022-08-21T07:50:55;19.20;99.90
52187;DHT22;38161;53.020;6.598;2022-08-21T07:53:21;19.20;99.90
52187;DHT22;38161;53.020;6.598;2022-08-21T07:55:48;19.30;99.90
52187;DHT22;38161;53.020;6.598;2022-08-21T07:58:13;19.40;99.90
52187;DHT22;38161;53.020;6.598;2022-08-21T08:00:39;19.40;99.90
52187;DHT22;38161;53.020;6.598;2022-08-21T08:03:05;19.50;99.90
52187;DHT22;38161;53.020;6.598;2022-08-21T08:05:32;19.60;99.90
52187;DHT22;38161;53.020;6.598;2022-08-21T08:07:58;19.70;99.90
52187;DHT22;38161;53.020;6.598;2022-08-21T08:10:24;19.80;99.90
52187;DHT22;38161;53.020;6.598;2022-08-21T08:12:51;19.80;99.90
52187;DHT22;38161;53.020;6.598;2022-08-21T08:15:23;19.90;99.90
52187;DHT22;38161;53.020;6.598;2022-08-21T08:17:49;20.00;99.90
52187;DHT22;38161;53.020;6.598;2022-08-21T08:20:16;20.10;99.90
52187;DHT22;38161;53.020;6.598;2022-08-21T08:22:44;20.20;99.90
52187;DHT22;38161;53.020;6.598;2022-08-21T08:25:11;20.30;99.90
52187;DHT22;38161;53.020;6.598;2022-08-21T08:27:38;20.30;99.90
52187;DHT22;38161;53.020;6.598;2022-08-21T08:30:06;20.40;99.90
52187;DHT22;38161;53.020;6.598;2022-08-21T08:32:32;20.40;99.90
52187;DHT22;38161;53.020;6.598;2022-08-21T08:34:58;20.50;99.90
52187;DHT22;38161;53.020;6.598;2022-08-21T08:37:24;20.60;99.90
52187;DHT22;38161;53.020;6.598;2022-08-21T08:39:50;20.70;99.90
52187;DHT22;38161;53.020;6.598;2022-08-21T08:42:27;20.80;99.90
52187;DHT22;38161;53.020;6.598;2022-08-21T08:45:04;20.90;99.90
52187;DHT22;38161;53.020;6.598;2022-08-21T08:47:31;21.00;99.90
52187;DHT22;38161;53.020;6.598;2022-08-21T08:50:11;21.00;99.90
52187;DHT22;38161;53.020;6.598;2022-08-21T08:53:02;21.10;99.90
52187;DHT22;38161;53.020;6.598;2022-08-21T08:55:39;21.20;99.90
52187;DHT22;38161;53.020;6.598;2022-08-21T08:58:05;21.30;99.90
52187;DHT22;38161;53.020;6.598;2022-08-21T09:00:32;21.40;99.90
52187;DHT22;38161;53.020;6.598;2022-08-21T09:03:01;21.50;99.90
52187;DHT22;38161;53.020;6.598;2022-08-21T09:11:02;21.70;99.90
52187;DHT22;38161;53.020;6.598;2022-08-21T09:16:48;21.90;99.90
52187;DHT22;38161;53.020;6.598;2022-08-21T09:22:31;22.10;99.90
52187;DHT22;38161;53.020;6.598;2022-08-21T09:25:12;22.20;99.90
52187;DHT22;38161;53.020;6.598;2022-08-21T09:27:40;22.30;99.90
52187;DHT22;38161;53.020;6.598;2022-08-21T09:30:09;22.40;99.90
52187;DHT22;38161;53.020;6.598;2022-08-21T09:32:37;22.50;99.90
52187;DHT22;38161;53.020;6.598;2022-08-21T09:35:10;22.50;99.90
52187;DHT22;38161;53.020;6.598;2022-08-21T09:37:54;22.60;99.90
52187;DHT22;38161;53.020;6.598;2022-08-21T09:40:31;22.70;99.90
52187;DHT22;38161;53.020;6.598;2022-08-21T09:43:18;22.80;99.90
52187;DHT22;38161;53.020;6.598;2022-08-21T09:45:46;22.90;99.90
52187;DHT22;38161;53.020;6.598;2022-08-21T09:48:15;23.00;99.90
52187;DHT22;38161;53.020;6.598;2022-08-21T09:50:43;23.10;99.90
52187;DHT22;38161;53.020;6.598;2022-08-21T09:55:58;23.00;99.90
52187;DHT22;38161;53.020;6.598;2022-08-21T09:58:45;22.90;99.90
52187;DHT22;38161;53.020;6.598;2022-08-21T10:01:23;23.10;99.90
52187;DHT22;38161;53.020;6.598;2022-08-21T10:04:01;23.20;99.90
52187;DHT22;38161;53.020;6.598;2022-08-21T10:06:28;23.20;99.90
52187;DHT22;38161;53.020;6.598;2022-08-21T10:09:12;23.40;99.90
52187;DHT22;38161;53.020;6.598;2022-08-21T10:11:39;23.60;99.90
52187;DHT22;38161;53.020;6.598;2022-08-21T10:17:30;23.90;99.90
52187;DHT22;38161;53.020;6.598;2022-08-21T10:25:40;24.10;99.90
52187;DHT22;38161;53.020;6.598;2022-08-21T10:28:18;24.30;99.90
52187;DHT22;38161;53.020;6.598;2022-08-21T10:30:57;24.20;99.90
52187;DHT22;38161;53.020;6.598;2022-08-21T10:33:42;24.00;99.90
52187;DHT22;38161;53.020;6.598;2022-08-21T10:36:19;23.90;99.90
52187;DHT22;38161;53.020;6.598;2022-08-21T10:45:11;24.00;99.90
52187;DHT22;38161;53.020;6.598;2022-08-21T10:47:47;24.00;99.90
52187;DHT22;38161;53.020;6.598;2022-08-21T10:50:42;23.90;99.90
52187;DHT22;38161;53.020;6.598;2022-08-21T10:56:16;23.70;99.90
52187;DHT22;38161;53.020;6.598;2022-08-21T10:59:01;23.70;99.90
52187;DHT22;38161;53.020;6.598;2022-08-21T11:01:45;23.60;99.90
52187;DHT22;38161;53.020;6.598;2022-08-21T11:04:19;23.50;99.90
52187;DHT22;38161;53.020;6.598;2022-08-21T11:07:19;23.40;99.90
52187;DHT22;38161;53.020;6.598;2022-08-21T11:09:47;23.30;99.90
52187;DHT22;38161;53.020;6.598;2022-08-21T11:12:22;23.40;99.90
52187;DHT22;38161;53.020;6.598;2022-08-21T11:15:05;23.50;99.90
52187;DHT22;38161;53.020;6.598;2022-08-21T11:17:50;23.70;99.90
52187;DHT22;38161;53.020;6.598;2022-08-21T11:20:38;23.90;99.90
52187;DHT22;38161;53.020;6.598;2022-08-21T11:23:33;24.10;99.90
52187;DHT22;38161;53.020;6.598;2022-08-21T11:26:07;24.20;99.90
52187;DHT22;38161;53.020;6.598;2022-08-21T11:28:50;24.10;99.90
52187;DHT22;38161;53.020;6.598;2022-08-21T11:31:43;24.00;99.90
52187;DHT22;38161;53.020;6.598;2022-08-21T11:39:52;23.60;99.90
52187;DHT22;38161;53.020;6.598;2022-08-21T11:42:20;23.50;99.90
52187;DHT22;38161;53.020;6.598;2022-08-21T11:47:19;23.40;99.90
52187;DHT22;38161;53.020;6.598;2022-08-21T11:50:17;23.30;99.90
52187;DHT22;38161;53.020;6.598;2022-08-21T11:52:53;23.30;99.90
52187;DHT22;38161;53.020;6.598;2022-08-21T11:55:53;23.30;99.90
52187;DHT22;38161;53.020;6.598;2022-08-21T11:58:39;23.20;99.90
52187;DHT22;38161;53.020;6.598;2022-08-21T12:01:12;23.20;99.90
52187;DHT22;38161;53.020;6.598;2022-08-21T12:03:52;23.20;99.90
52187;DHT22;38161;53.020;6.598;2022-08-21T12:06:30;23.10;99.90
52187;DHT22;38161;53.020;6.598;2022-08-21T12:08:59;23.10;99.90
52187;DHT22;38161;53.020;6.598;2022-08-21T12:11:25;23.10;99.90
52187;DHT22;38161;53.020;6.598;2022-08-21T12:16:38;23.10;99.90
52187;DHT22;38161;53.020;6.598;2022-08-21T12:19:10;23.10;99.90
52187;DHT22;38161;53.020;6.598;2022-08-21T12:24:44;23.10;99.90
52187;DHT22;38161;53.020;6.598;2022-08-21T12:27:22;23.00;99.90
52187;DHT22;38161;53.020;6.598;2022-08-21T12:29:59;23.00;99.90
52187;DHT22;38161;53.020;6.598;2022-08-21T12:32:45;23.00;99.90
52187;DHT22;38161;53.020;6.598;2022-08-21T12:35:19;23.00;99.90
52187;DHT22;38161;53.020;6.598;2022-08-21T12:37:49;23.00;99.90
52187;DHT22;38161;53.020;6.598;2022-08-21T12:40:21;23.00;99.90
52187;DHT22;38161;53.020;6.598;2022-08-21T12:42:51;23.00;99.90
52187;DHT22;38161;53.020;6.598;2022-08-21T12:45:19;23.00;99.90
52187;DHT22;38161;53.020;6.598;2022-08-21T12:47:50;23.00;99.90
52187;DHT22;38161;53.020;6.598;2022-08-21T12:50:35;23.00;99.90
52187;DHT22;38161;53.020;6.598;2022-08-21T12:53:08;22.90;99.90
52187;DHT22;38161;53.020;6.598;2022-08-21T12:55:40;22.90;99.90
52187;DHT22;38161;53.020;6.598;2022-08-21T12:58:15;22.90;99.90
52187;DHT22;38161;53.020;6.598;2022-08-21T13:00:48;22.80;99.90
52187;DHT22;38161;53.020;6.598;2022-08-21T13:03:15;22.80;99.90
52187;DHT22;38161;53.020;6.598;2022-08-21T13:05:41;22.70;99.90
52187;DHT22;38161;53.020;6.598;2022-08-21T13:08:10;22.60;99.90
52187;DHT22;38161;53.020;6.598;2022-08-21T13:10:37;22.60;99.90
52187;DHT22;38161;53.020;6.598;2022-08-21T13:13:08;22.60;99.90
52187;DHT22;38161;53.020;6.598;2022-08-21T13:15:37;22.60;99.90
52187;DHT22;38161;53.020;6.598;2022-08-21T13:18:05;22.60;99.90
52187;DHT22;38161;53.020;6.598;2022-08-21T13:20:38;22.70;99.90
52187;DHT22;38161;53.020;6.598;2022-08-21T13:23:29;22.70;99.90
52187;DHT22;38161;53.020;6.598;2022-08-21T13:25:53;22.70;99.90
52187;DHT22;38161;53.020;6.598;2022-08-21T13:28:19;22.80;99.90
52187;DHT22;38161;53.020;6.598;2022-08-21T13:30:51;22.80;99.90
52187;DHT22;38161;53.020;6.598;2022-08-21T13:33:22;22.80;99.90
52187;DHT22;38161;53.020;6.598;2022-08-21T13:38:34;22.70;99.90
52187;DHT22;38161;53.020;6.598;2022-08-21T13:43:46;22.90;99.90
52187;DHT22;38161;53.020;6.598;2022-08-21T13:46:13;22.90;99.90
52187;DHT22;38161;53.020;6.598;2022-08-21T13:48:41;23.00;99.90
52187;DHT22;38161;53.020;6.598;2022-08-21T13:51:08;23.10;99.90
52187;DHT22;38161;53.020;6.598;2022-08-21T13:53:49;23.20;99.90
52187;DHT22;38161;53.020;6.598;2022-08-21T13:56:23;23.40;99.90
52187;DHT22;38161;53.020;6.598;2022-08-21T13:58:51;23.50;99.90
52187;DHT22;38161;53.020;6.598;2022-08-21T14:01:50;23.60;99.90
52187;DHT22;38161;53.020;6.598;2022-08-21T14:04:37;23.60;99.90
52187;DHT22;38161;53.020;6.598;2022-08-21T14:07:16;23.70;99.90
52187;DHT22;38161;53.020;6.598;2022-08-21T14:09:44;23.70;99.90
52187;DHT22;38161;53.020;6.598;2022-08-21T14:12:37;23.70;99.90
52187;DHT22;38161;53.020;6.598;2022-08-21T14:15:04;23.80;99.90
52187;DHT22;38161;53.020;6.598;2022-08-21T14:17:39;23.80;99.90
52187;DHT22;38161;53.020;6.598;2022-08-21T14:20:12;23.80;99.90
52187;DHT22;38161;53.020;6.598;2022-08-21T14:22:40;23.80;99.90
52187;DHT22;38161;53.020;6.598;2022-08-21T14:30:39;23.90;99.90
52187;DHT22;38161;53.020;6.598;2022-08-21T14:33:23;23.90;99.90
52187;DHT22;38161;53.020;6.598;2022-08-21T14:35:50;23.90;99.90
52187;DHT22;38161;53.020;6.598;2022-08-21T14:38:20;23.90;99.90
52187;DHT22;38161;53.020;6.598;2022-08-21T14:40:49;23.90;99.90
52187;DHT22;38161;53.020;6.598;2022-08-21T14:43:15;23.80;99.90
52187;DHT22;38161;53.020;6.598;2022-08-21T14:45:41;23.80;99.90
52187;DHT22;38161;53.020;6.598;2022-08-21T14:48:09;23.90;99.90
52187;DHT22;38161;53.020;6.598;2022-08-21T14:50:35;23.90;99.90
52187;DHT22;38161;53.020;6.598;2022-08-21T14:53:01;23.80;99.90
52187;DHT22;38161;53.020;6.598;2022-08-21T14:55:30;23.90;99.90
52187;DHT22;38161;53.020;6.598;2022-08-21T14:58:16;23.80;99.90
52187;DHT22;38161;53.020;6.598;2022-08-21T15:00:42;23.80;99.90
52187;DHT22;38161;53.020;6.598;2022-08-21T15:03:07;23.80;99.90
52187;DHT22;38161;53.020;6.598;2022-08-21T15:05:33;23.80;99.90
52187;DHT22;38161;53.020;6.598;2022-08-21T15:07:59;23.70;99.90
52187;DHT22;38161;53.020;6.598;2022-08-21T15:10:24;23.70;99.90
52187;DHT22;38161;53.020;6.598;2022-08-21T15:12:50;23.60;99.90
52187;DHT22;38161;53.020;6.598;2022-08-21T15:15:16;23.60;99.90
52187;DHT22;38161;53.020;6.598;2022-08-21T15:17:42;23.60;99.90
52187;DHT22;38161;53.020;6.598;2022-08-21T15:20:08;23.60;99.90
52187;DHT22;38161;53.020;6.598;2022-08-21T15:22:34;23.60;99.90
52187;DHT22;38161;53.020;6.598;2022-08-21T15:25:02;23.50;99.90
52187;DHT22;38161;53.020;6.598;2022-08-21T15:27:29;23.50;99.90
52187;DHT22;38161;53.020;6.598;2022-08-21T15:29:55;23.50;99.90
52187;DHT22;38161;53.020;6.598;2022-08-21T15:32:24;23.50;99.90
52187;DHT22;38161;53.020;6.598;2022-08-21T15:34:52;23.40;99.90
52187;DHT22;38161;53.020;6.598;2022-08-21T15:37:19;23.40;99.90
52187;DHT22;38161;53.020;6.598;2022-08-21T15:39:45;23.40;99.90
52187;DHT22;38161;53.020;6.598;2022-08-21T15:42:11;23.40;99.90
52187;DHT22;38161;53.020;6.598;2022-08-21T15:44:41;23.40;99.90
52187;DHT22;38161;53.020;6.598;2022-08-21T15:47:14;23.40;99.90
52187;DHT22;38161;53.020;6.598;2022-08-21T15:49:41;23.40;99.90
52187;DHT22;38161;53.020;6.598;2022-08-21T15:52:11;23.40;99.90
52187;DHT22;38161;53.020;6.598;2022-08-21T15:54:37;23.30;99.90
52187;DHT22;38161;53.020;6.598;2022-08-21T15:57:03;23.30;99.90
52187;DHT22;38161;53.020;6.598;2022-08-21T15:59:29;23.30;99.90
52187;DHT22;38161;53.020;6.598;2022-08-21T16:01:57;23.30;99.90
52187;DHT22;38161;53.020;6.598;2022-08-21T16:04:27;23.30;99.90
52187;DHT22;38161;53.020;6.598;2022-08-21T16:06:53;23.30;99.90
52187;DHT22;38161;53.020;6.598;2022-08-21T16:09:20;23.30;99.90
52187;DHT22;38161;53.020;6.598;2022-08-21T16:11:46;23.30;99.90
52187;DHT22;38161;53.020;6.598;2022-08-21T16:14:14;23.30;99.90
52187;DHT22;38161;53.020;6.598;2022-08-21T16:16:41;23.20;99.90
52187;DHT22;38161;53.020;6.598;2022-08-21T16:19:07;23.20;99.90
52187;DHT22;38161;53.020;6.598;2022-08-21T16:21:34;23.20;99.90
52187;DHT22;38161;53.020;6.598;2022-08-21T16:24:00;23.10;99.90
52187;DHT22;38161;53.020;6.598;2022-08-21T16:26:27;23.10;99.90
52187;DHT22;38161;53.020;6.598;2022-08-21T16:28:55;23.10;99.90
52187;DHT22;38161;53.020;6.598;2022-08-21T16:31:23;23.10;99.90
52187;DHT22;38161;53.020;6.598;2022-08-21T16:33:54;23.10;99.90
52187;DHT22;38161;53.020;6.598;2022-08-21T16:36:20;23.10;99.90
52187;DHT22;38161;53.020;6.598;2022-08-21T16:38:47;23.00;99.90
52187;DHT22;38161;53.020;6.598;2022-08-21T16:41:17;23.00;99.90
52187;DHT22;38161;53.020;6.598;2022-08-21T16:43:44;23.00;99.90